Alyeska Resort
Max's Hourly Weather Roundup
ALYESKA_MAX 7/30/2014
Click Here for Graph

        DATE  TIME   Air  Wind  Wind  Wind  BATT   Rel
                    Temp   Spd   Dir  Gust  Volt  Hum%
                      F   MPH   AVG   MPH   AVG   AVG

   7/30/2014 06:00    47     3    99     7 12.80   100
   7/30/2014 05:00    47     5    54     8 12.81   100
   7/30/2014 04:00    47     5    53     9 12.83   100
   7/30/2014 03:00    49     4    87     8 12.86   100
   7/30/2014 02:00    50     2   157     6 12.89   100
   7/30/2014 01:00    52     2   158     4 12.93    96
   7/29/2014 24:00    54     4   232    10 12.97    87
   7/29/2014 23:00    55     3   287     6 13.06    84
   7/29/2014 22:00    57     3   219     6 13.57    80
   7/29/2014 21:00    60     2   240     5 13.90    78
   7/29/2014 20:00    59     2   266     6 13.89    81
   7/29/2014 19:00    60     2   242     6 13.86    76
   7/29/2014 18:00    59     4   184     9 13.86    78
   7/29/2014 17:00    59     4   195     8 13.84    74
   7/29/2014 16:00    58     5   186     9 13.78    78
   7/29/2014 15:00    58     4   178     8 13.70    84
   7/29/2014 14:00    56     2   189     7 13.66    86
   7/29/2014 13:00    54     1   184     4 13.62    70
   7/29/2014 12:00    53     2    67     4 13.61    68
   7/29/2014 11:00    51     3    52     6 13.59    76
   7/29/2014 10:00    49     3   112     6 13.57    79
   7/29/2014 09:00    47     4   258     6 13.54    83
   7/29/2014 08:00    47     4    22     6 13.57    82
   7/29/2014 07:00    46     2   103     4 12.90    84


Click Here for Graph